LPA3412 VIDP-UGTB
Flight info
| Callsign | LPA3412 |
|---|---|
| Flight time | N/A |
| Altitude | 36000 |
| Route | OROTI7C OROTI DCT BUTOP DCT DI DCT LEMOD DCT RODAR DCT ADEKI DCT LAMUS |
| Aircraft | A320/M-SDE3FGHIRWY/LB1 |
Departure
| Time | 2026-04-27 11:06 |
|---|---|
| Airport | Indira Gandhi International Airport (VIDP) |
Arrival
| Time | N/A |
|---|---|
| Airport | Tbilisi International Airport (UGTB) |
| Time | Latitude | Longitude | Altitude | Speed | Heading |
|---|---|---|---|---|---|
| 2026-04-27 10:28 | 28.55179 | 77.08052 | 749 ft | 0 kts | 144° |
| 2026-04-27 10:52 | 28.55187 | 77.08046 | 747 ft | 2 kts | 144° |
| 2026-04-27 10:52 | 28.55200 | 77.08035 | 751 ft | 2 kts | 146° |
| 2026-04-27 10:52 | 28.55214 | 77.08025 | 751 ft | 2 kts | 150° |
| 2026-04-27 10:52 | 28.55229 | 77.08017 | 751 ft | 2 kts | 173° |
| 2026-04-27 10:53 | 28.55243 | 77.08021 | 750 ft | 1 kts | 238° |
| 2026-04-27 10:53 | 28.55244 | 77.08023 | 751 ft | 0 kts | 239° |
| 2026-04-27 10:56 | 28.55235 | 77.08006 | 751 ft | 5 kts | 238° |
| 2026-04-27 10:57 | 28.55209 | 77.07959 | 750 ft | 7 kts | 239° |
| 2026-04-27 10:57 | 28.55184 | 77.07918 | 750 ft | 5 kts | 224° |
| 2026-04-27 10:57 | 28.55152 | 77.07901 | 747 ft | 6 kts | 196° |
| 2026-04-27 10:57 | 28.55104 | 77.07909 | 748 ft | 7 kts | 142° |
| 2026-04-27 10:58 | 28.55082 | 77.07965 | 748 ft | 11 kts | 104° |
| 2026-04-27 10:58 | 28.55060 | 77.08063 | 749 ft | 13 kts | 104° |
| 2026-04-27 10:58 | 28.55039 | 77.08156 | 748 ft | 11 kts | 104° |
| 2026-04-27 10:58 | 28.55017 | 77.08250 | 749 ft | 14 kts | 105° |
| 2026-04-27 10:59 | 28.54991 | 77.08363 | 749 ft | 15 kts | 104° |
| 2026-04-27 10:59 | 28.54964 | 77.08479 | 751 ft | 16 kts | 104° |
| 2026-04-27 10:59 | 28.54931 | 77.08626 | 751 ft | 20 kts | 105° |
| 2026-04-27 11:00 | 28.54866 | 77.08905 | 749 ft | 17 kts | 105° |
| 2026-04-27 11:00 | 28.54827 | 77.09074 | 749 ft | 27 kts | 104° |
| 2026-04-27 11:00 | 28.54783 | 77.09270 | 747 ft | 25 kts | 105° |
| 2026-04-27 11:00 | 28.54736 | 77.09466 | 750 ft | 26 kts | 104° |
| 2026-04-27 11:01 | 28.54691 | 77.09667 | 751 ft | 26 kts | 104° |
| 2026-04-27 11:01 | 28.54644 | 77.09871 | 750 ft | 26 kts | 106° |
| 2026-04-27 11:01 | 28.54600 | 77.10063 | 751 ft | 25 kts | 104° |
| 2026-04-27 11:01 | 28.54556 | 77.10256 | 751 ft | 25 kts | 104° |
| 2026-04-27 11:02 | 28.54513 | 77.10442 | 750 ft | 17 kts | 104° |
| 2026-04-27 11:02 | 28.54485 | 77.10553 | 749 ft | 12 kts | 113° |
| 2026-04-27 11:02 | 28.54425 | 77.10578 | 751 ft | 9 kts | 192° |
| 2026-04-27 11:02 | 28.54405 | 77.10521 | 748 ft | 11 kts | 272° |
| 2026-04-27 11:03 | 28.54360 | 77.10470 | 750 ft | 9 kts | 196° |
| 2026-04-27 11:03 | 28.54274 | 77.10442 | 749 ft | 15 kts | 198° |
| 2026-04-27 11:03 | 28.54252 | 77.10365 | 752 ft | 0 kts | 283° |
| 2026-04-27 11:04 | 28.54254 | 77.10358 | 751 ft | 6 kts | 283° |
| 2026-04-27 11:05 | 28.54311 | 77.10093 | 752 ft | 69 kts | 284° |
| 2026-04-27 11:05 | 28.54476 | 77.09326 | 750 ft | 127 kts | 284° |
| 2026-04-27 11:05 | 28.54725 | 77.08170 | 750 ft | 172 kts | 284° |
| 2026-04-27 11:05 | 28.55024 | 77.06813 | 1302 ft | 174 kts | 285° |
| 2026-04-27 11:06 | 28.55297 | 77.05463 | 1992 ft | 176 kts | 274° |
| 2026-04-27 11:06 | 28.55158 | 77.04089 | 2607 ft | 179 kts | 260° |
| 2026-04-27 11:06 | 28.54844 | 77.02640 | 2732 ft | 198 kts | 258° |
| 2026-04-27 11:06 | 28.54455 | 77.01046 | 2848 ft | 220 kts | 257° |
| 2026-04-27 11:07 | 28.54023 | 76.99292 | 2986 ft | 242 kts | 257° |
| 2026-04-27 11:07 | 28.53556 | 76.97371 | 3169 ft | 260 kts | 257° |
| 2026-04-27 11:07 | 28.53074 | 76.95356 | 3648 ft | 266 kts | 257° |
| 2026-04-27 11:07 | 28.52592 | 76.93302 | 3948 ft | 270 kts | 257° |
| 2026-04-27 11:08 | 28.52117 | 76.91247 | 3990 ft | 268 kts | 258° |
| 2026-04-27 11:08 | 28.51646 | 76.89196 | 4004 ft | 267 kts | 258° |
| 2026-04-27 11:08 | 28.51304 | 76.87133 | 4003 ft | 264 kts | 272° |
| 2026-04-27 11:08 | 28.51594 | 76.85084 | 4004 ft | 263 kts | 285° |
| 2026-04-27 11:09 | 28.52034 | 76.83068 | 3994 ft | 263 kts | 285° |
| 2026-04-27 11:09 | 28.52479 | 76.81049 | 4001 ft | 263 kts | 285° |
| 2026-04-27 11:09 | 28.52925 | 76.79026 | 4007 ft | 264 kts | 285° |
| 2026-04-27 11:09 | 28.53371 | 76.77006 | 4006 ft | 264 kts | 285° |
| 2026-04-27 11:10 | 28.53816 | 76.74980 | 4007 ft | 264 kts | 285° |
| 2026-04-27 11:10 | 28.54255 | 76.72957 | 3999 ft | 264 kts | 284° |
| 2026-04-27 11:10 | 28.54853 | 76.70987 | 4007 ft | 264 kts | 298° |
| 2026-04-27 11:10 | 28.55879 | 76.69238 | 4453 ft | 267 kts | 305° |
| 2026-04-27 11:11 | 28.56948 | 76.67517 | 5126 ft | 267 kts | 304° |
| 2026-04-27 11:11 | 28.58013 | 76.65779 | 5745 ft | 268 kts | 304° |
| 2026-04-27 11:11 | 28.59087 | 76.64025 | 6359 ft | 271 kts | 304° |
| 2026-04-27 11:11 | 28.60170 | 76.62257 | 6966 ft | 273 kts | 304° |
| 2026-04-27 11:12 | 28.61264 | 76.60473 | 7559 ft | 276 kts | 304° |
| 2026-04-27 11:12 | 28.62351 | 76.58700 | 8143 ft | 277 kts | 304° |
| 2026-04-27 11:12 | 28.63461 | 76.56890 | 8704 ft | 280 kts | 304° |
| 2026-04-27 11:12 | 28.64583 | 76.55060 | 9246 ft | 283 kts | 304° |
| 2026-04-27 11:13 | 28.65714 | 76.53216 | 9811 ft | 286 kts | 304° |
| 2026-04-27 11:13 | 28.66882 | 76.51308 | 10003 ft | 303 kts | 304° |
| 2026-04-27 11:13 | 28.68124 | 76.49280 | 10128 ft | 321 kts | 304° |
| 2026-04-27 11:13 | 28.69426 | 76.47154 | 10406 ft | 332 kts | 304° |
| 2026-04-27 11:14 | 28.70754 | 76.44984 | 10905 ft | 336 kts | 304° |
| 2026-04-27 11:14 | 28.72093 | 76.42793 | 11453 ft | 339 kts | 304° |
| 2026-04-27 11:14 | 28.73447 | 76.40581 | 12029 ft | 341 kts | 304° |